Time;durP1;ratioP1;P1;durP2;ratioP2;P2;SDS_P1;SDS_P2;PMS_P1;PMS_P2;Temp;Humidity;BMP_temperature;BMP_pressure;BME280_temperature;BME280_humidity;BME280_pressure;Samples;Min_cycle;Max_cycle;Signal;HPM_P1;HPM_P2
2023/08/23 00:13:28;;;;;;;15.18;9.82;;;;;;;26.14;60.53;100307.50;41470382;28;20157;-66
2023/08/23 00:33:28;;;;;;;13.55;9.40;;;;;;;26.04;60.26;100291.63;41522914;28;20049;-67
2023/08/23 00:53:30;;;;;;;12.70;9.70;;;;;;;25.84;60.80;100277.69;41569293;28;20053;-65
2023/08/23 01:13:36;;;;;;;12.50;9.73;;;;;;;25.82;61.23;100296.41;41536277;28;20561;-65
2023/08/23 01:33:42;;;;;;;12.77;9.98;;;;;;;25.61;60.55;100277.31;41540830;28;20648;-66
2023/08/23 01:53:42;;;;;;;13.18;9.50;;;;;;;25.52;60.92;100271.09;41495338;28;20104;-66
2023/08/23 02:13:43;;;;;;;10.52;8.98;;;;;;;25.38;61.48;100248.59;41549454;28;20559;-65
2023/08/23 02:33:43;;;;;;;11.43;9.48;;;;;;;25.33;61.83;100245.50;41540287;28;20038;-65
2023/08/23 02:53:44;;;;;;;12.20;9.35;;;;;;;25.24;62.04;100240.16;41526747;28;20053;-65
2023/08/23 03:13:44;;;;;;;15.25;9.52;;;;;;;25.13;62.02;100243.00;41542029;28;20975;-65
2023/08/23 03:33:44;;;;;;;15.68;10.63;;;;;;;24.99;62.24;100240.88;41571958;28;20049;-65
2023/08/23 03:53:45;;;;;;;16.67;10.68;;;;;;;24.99;62.10;100233.75;41541356;28;20050;-66
2023/08/23 04:13:46;;;;;;;14.23;9.88;;;;;;;24.91;62.85;100237.13;41565616;28;20501;-66
2023/08/23 04:33:46;;;;;;;19.45;11.63;;;;;;;24.90;62.05;100216.06;41563855;28;20049;-66
2023/08/23 04:53:49;;;;;;;19.05;11.80;;;;;;;25.00;61.55;100229.25;41549462;28;20045;-68
2023/08/23 05:13:52;;;;;;;21.60;11.55;;;;;;;24.91;61.94;100207.16;41548363;28;20053;-68
2023/08/23 05:33:59;;;;;;;20.80;11.05;;;;;;;25.26;61.74;100216.16;41572841;28;20103;-70
2023/08/23 05:54:01;;;;;;;17.15;12.38;;;;;;;24.39;60.50;100043.53;41564778;28;20103;-72
2023/08/23 06:14:19;;;;;;;17.33;11.43;;;;;;;25.84;59.41;100221.97;41602252;28;20045;-70
2023/08/23 06:34:19;;;;;;;13.55;9.02;;;;;;;25.31;57.08;100080.53;41595570;28;20046;-68
2023/08/23 06:54:20;;;;;;;13.63;8.93;;;;;;;26.53;55.51;100222.13;41581987;28;20046;-69
2023/08/23 07:14:20;;;;;;;13.85;8.80;;;;;;;26.74;55.56;100229.69;41579573;28;20072;-68
2023/08/23 07:34:21;;;;;;;9.35;8.27;;;;;;;26.86;56.00;100250.72;41597381;28;20049;-69
2023/08/23 07:54:22;;;;;;;14.30;8.05;;;;;;;26.90;57.07;100257.34;41580179;28;20042;-66
2023/08/23 08:14:22;;;;;;;11.98;7.85;;;;;;;26.91;56.14;100251.06;41535898;28;20038;-67
2023/08/23 08:34:22;;;;;;;12.05;7.75;;;;;;;27.11;56.31;100257.78;41574136;28;20485;-66
2023/08/23 08:54:25;;;;;;;9.68;7.75;;;;;;;27.04;56.54;100221.34;41562024;28;20054;-66
2023/08/23 09:14:28;;;;;;;13.68;7.53;;;;;;;27.50;55.82;100252.91;41535371;28;20970;-67
2023/08/23 09:34:28;;;;;;;11.25;7.47;;;;;;;27.46;55.64;100247.06;41521792;28;20049;-66
2023/08/23 09:55:00;;;;;;;12.80;7.55;;;;;;;27.61;55.87;100239.28;41543015;28;20072;-66
2023/08/23 10:15:01;;;;;;;;;;;;;;;27.78;55.03;100245.44;41561965;28;20353;-66
2023/08/23 10:35:02;;;;;;;12.25;7.53;;;;;;;27.68;54.76;100208.34;41544779;28;19929;-67
2023/08/23 10:55:02;;;;;;;12.73;7.82;;;;;;;28.18;53.31;100227.78;41534022;28;20095;-66
2023/08/23 11:15:04;;;;;;;9.15;8.15;;;;;;;28.17;54.23;100214.66;41572664;28;20036;-70
2023/08/23 11:35:07;;;;;;;12.15;8.32;;;;;;;28.40;54.28;100194.28;41559900;28;20063;-67
2023/08/23 11:55:08;;;;;;;11.15;7.10;;;;;;;28.41;53.29;100192.47;41532584;28;20520;-70
2023/08/23 12:15:09;;;;;;;9.23;7.00;;;;;;;28.56;52.54;100190.75;41562597;28;20053;-69
2023/08/23 12:35:09;;;;;;;7.90;6.70;;;;;;;28.84;52.68;100173.50;41598366;28;20077;-69
2023/08/23 12:55:11;;;;;;;8.63;5.73;;;;;;;29.10;50.79;100154.53;41591482;28;20101;-67
2023/08/23 13:15:11;;;;;;;7.53;5.70;;;;;;;28.90;50.78;100117.66;41572966;28;20340;-68
2023/08/23 13:35:12;;;;;;;8.10;5.63;;;;;;;29.11;50.11;100131.34;41564423;28;20501;-67
2023/08/23 13:55:13;;;;;;;8.98;5.88;;;;;;;29.07;49.82;100128.22;41569519;28;20566;-66
2023/08/23 14:15:13;;;;;;;8.37;5.53;;;;;;;29.16;50.12;100155.63;41569530;28;20099;-68
2023/08/23 14:35:14;;;;;;;6.23;4.60;;;;;;;29.08;49.81;100160.00;41570552;28;20042;-68
2023/08/23 14:55:14;;;;;;;8.60;4.83;;;;;;;29.02;48.33;100152.72;41571679;28;20057;-68
2023/08/23 15:15:16;;;;;;;6.33;4.80;;;;;;;29.17;48.54;100158.09;41543651;28;20065;-69
2023/08/23 15:35:17;;;;;;;6.60;4.15;;;;;;;28.90;50.08;100164.78;41556687;28;20052;-69
2023/08/23 15:55:18;;;;;;;6.13;4.50;;;;;;;28.79;49.66;100174.00;41574565;28;20104;-68
2023/08/23 16:15:19;;;;;;;;;;;;;;;28.71;50.28;100161.56;41594856;28;20052;-69
2023/08/23 16:35:36;;;;;;;6.63;5.43;;;;;;;28.88;51.48;100153.47;41558758;28;19928;-74
2023/08/23 16:55:38;;;;;;;19.65;7.10;;;;;;;28.70;51.53;100141.25;41561535;28;20041;-77
2023/08/23 17:15:39;;;;;;;10.20;5.70;;;;;;;28.54;52.09;100162.59;41552776;28;20489;-78
2023/08/23 17:35:40;;;;;;;12.00;5.37;;;;;;;28.62;51.01;100186.56;41554831;28;20046;-72
2023/08/23 17:55:41;;;;;;;6.67;5.03;;;;;;;28.51;49.38;100171.78;41543940;28;20044;-76
2023/08/23 18:15:44;;;;;;;7.70;5.03;;;;;;;28.55;48.50;100230.88;41537375;28;20132;-73
2023/08/23 18:35:48;;;;;;;7.55;4.35;;;;;;;28.19;48.29;100210.00;41554188;28;20068;-70
2023/08/23 18:55:50;;;;;;;6.70;4.63;;;;;;;28.09;49.16;100250.94;41554729;28;20052;-72
2023/08/23 19:15:52;;;;;;;6.53;4.35;;;;;;;27.85;49.01;100251.75;41585347;28;20157;-72
2023/08/23 19:35:53;;;;;;;;;;;;;;;27.63;49.95;100295.81;41573894;28;20695;-70
2023/08/23 19:55:59;;;;;;;13.93;5.07;;;;;;;28.05;49.78;100329.47;41542086;28;19936;-70
2023/08/23 20:16:01;;;;;;;6.03;5.10;;;;;;;28.13;49.93;100351.78;41580184;28;20053;-70
2023/08/23 20:36:05;;;;;;;9.95;6.32;;;;;;;27.61;52.65;100335.88;41519116;28;20037;-73
2023/08/23 20:56:09;;;;;;;8.73;6.90;;;;;;;26.41;55.35;100287.13;41538750;28;20073;-72
2023/08/23 21:16:09;;;;;;;7.80;6.53;;;;;;;26.04;56.27;100279.19;41601689;28;20049;-71
2023/08/23 21:36:09;;;;;;;8.00;6.40;;;;;;;26.29;56.46;100299.81;41609490;28;20056;-71
2023/08/23 21:56:10;;;;;;;7.30;6.55;;;;;;;25.69;56.97;100272.91;41575796;28;20038;-70
2023/08/23 22:16:12;;;;;;;10.43;6.68;;;;;;;25.53;57.17;100265.63;41563931;28;20072;-70
2023/08/23 22:36:14;;;;;;;9.63;6.40;;;;;;;26.24;56.74;100373.75;41568016;28;20053;-75
2023/08/23 22:56:15;;;;;;;7.20;6.45;;;;;;;24.99;56.94;100199.31;41556632;28;20042;-71
2023/08/23 23:16:15;;;;;;;6.78;6.07;;;;;;;25.36;57.59;100280.50;41586006;28;20477;-72
2023/08/23 23:36:16;;;;;;;8.40;6.63;;;;;;;25.52;57.62;100353.28;41568833;28;20045;-71
2023/08/23 23:56:22;;;;;;;7.50;6.25;;;;;;;24.75;58.72;100269.50;41586558;28;20056;-70
